sensor_id;sensor_type;location;lat;lon;timestamp;P1;durP1;ratioP1;P2;durP2;ratioP2
25932;SDS011;13731;51.166;4.474;2023-03-17T00:01:05;13.88;;;13.20;;
25932;SDS011;13731;51.166;4.474;2023-03-17T00:03:32;12.75;;;12.05;;
25932;SDS011;13731;51.166;4.474;2023-03-17T00:06:02;13.10;;;12.23;;
25932;SDS011;13731;51.166;4.474;2023-03-17T00:08:32;13.02;;;12.43;;
25932;SDS011;13731;51.166;4.474;2023-03-17T00:11:00;13.75;;;13.07;;
25932;SDS011;13731;51.166;4.474;2023-03-17T00:13:27;13.30;;;12.60;;
25932;SDS011;13731;51.166;4.474;2023-03-17T00:16:02;13.40;;;12.50;;
25932;SDS011;13731;51.166;4.474;2023-03-17T00:18:31;13.10;;;12.50;;
25932;SDS011;13731;51.166;4.474;2023-03-17T00:20:59;13.13;;;12.38;;
25932;SDS011;13731;51.166;4.474;2023-03-17T00:23:25;13.27;;;12.68;;
25932;SDS011;13731;51.166;4.474;2023-03-17T00:25:51;13.07;;;12.38;;
25932;SDS011;13731;51.166;4.474;2023-03-17T00:30:51;13.63;;;12.82;;
25932;SDS011;13731;51.166;4.474;2023-03-17T00:33:22;14.13;;;12.98;;
25932;SDS011;13731;51.166;4.474;2023-03-17T00:35:51;14.27;;;13.48;;
25932;SDS011;13731;51.166;4.474;2023-03-17T00:38:18;15.02;;;14.07;;
25932;SDS011;13731;51.166;4.474;2023-03-17T00:40:45;13.50;;;12.75;;
25932;SDS011;13731;51.166;4.474;2023-03-17T00:43:12;17.25;;;16.25;;
25932;SDS011;13731;51.166;4.474;2023-03-17T00:45:39;15.70;;;14.80;;
25932;SDS011;13731;51.166;4.474;2023-03-17T00:48:10;16.00;;;14.88;;
25932;SDS011;13731;51.166;4.474;2023-03-17T00:50:41;16.50;;;15.50;;
25932;SDS011;13731;51.166;4.474;2023-03-17T00:53:13;18.45;;;17.17;;
25932;SDS011;13731;51.166;4.474;2023-03-17T00:55:41;15.85;;;14.93;;
25932;SDS011;13731;51.166;4.474;2023-03-17T00:58:12;15.32;;;14.55;;
25932;SDS011;13731;51.166;4.474;2023-03-17T01:00:48;14.98;;;14.27;;
25932;SDS011;13731;51.166;4.474;2023-03-17T01:03:14;15.88;;;15.02;;
25932;SDS011;13731;51.166;4.474;2023-03-17T01:05:40;14.48;;;13.55;;
25932;SDS011;13731;51.166;4.474;2023-03-17T01:08:07;15.30;;;14.43;;
25932;SDS011;13731;51.166;4.474;2023-03-17T01:10:34;16.00;;;14.70;;
25932;SDS011;13731;51.166;4.474;2023-03-17T01:13:00;15.07;;;14.27;;
25932;SDS011;13731;51.166;4.474;2023-03-17T01:15:27;14.98;;;14.27;;
25932;SDS011;13731;51.166;4.474;2023-03-17T01:17:56;14.40;;;13.55;;
25932;SDS011;13731;51.166;4.474;2023-03-17T01:20:24;15.05;;;14.30;;
25932;SDS011;13731;51.166;4.474;2023-03-17T01:22:51;15.18;;;14.27;;
25932;SDS011;13731;51.166;4.474;2023-03-17T01:25:18;15.13;;;14.25;;
25932;SDS011;13731;51.166;4.474;2023-03-17T01:27:45;16.13;;;15.23;;
25932;SDS011;13731;51.166;4.474;2023-03-17T01:30:18;15.77;;;14.73;;
25932;SDS011;13731;51.166;4.474;2023-03-17T01:32:48;14.93;;;14.15;;
25932;SDS011;13731;51.166;4.474;2023-03-17T01:35:14;15.82;;;15.05;;
25932;SDS011;13731;51.166;4.474;2023-03-17T01:37:40;15.25;;;14.50;;
25932;SDS011;13731;51.166;4.474;2023-03-17T01:40:07;15.02;;;14.32;;
25932;SDS011;13731;51.166;4.474;2023-03-17T01:42:37;16.38;;;15.50;;
25932;SDS011;13731;51.166;4.474;2023-03-17T01:45:07;15.63;;;14.77;;
25932;SDS011;13731;51.166;4.474;2023-03-17T01:48:08;15.95;;;15.05;;
25932;SDS011;13731;51.166;4.474;2023-03-17T01:50:34;16.88;;;15.88;;
25932;SDS011;13731;51.166;4.474;2023-03-17T01:53:00;15.43;;;14.35;;
25932;SDS011;13731;51.166;4.474;2023-03-17T01:55:27;14.98;;;14.38;;
25932;SDS011;13731;51.166;4.474;2023-03-17T01:57:54;12.85;;;12.23;;
25932;SDS011;13731;51.166;4.474;2023-03-17T02:00:21;13.35;;;12.68;;
25932;SDS011;13731;51.166;4.474;2023-03-17T02:02:52;13.32;;;12.52;;
25932;SDS011;13731;51.166;4.474;2023-03-17T02:05:21;14.65;;;13.98;;
25932;SDS011;13731;51.166;4.474;2023-03-17T02:07:53;13.77;;;12.98;;
25932;SDS011;13731;51.166;4.474;2023-03-17T02:10:26;14.50;;;13.73;;
25932;SDS011;13731;51.166;4.474;2023-03-17T02:12:54;15.43;;;14.73;;
25932;SDS011;13731;51.166;4.474;2023-03-17T02:15:23;15.70;;;14.85;;
25932;SDS011;13731;51.166;4.474;2023-03-17T02:18:01;14.48;;;13.68;;
25932;SDS011;13731;51.166;4.474;2023-03-17T02:22:53;14.82;;;14.13;;
25932;SDS011;13731;51.166;4.474;2023-03-17T02:25:22;15.85;;;15.15;;
25932;SDS011;13731;51.166;4.474;2023-03-17T02:27:51;16.23;;;15.50;;
25932;SDS011;13731;51.166;4.474;2023-03-17T02:30:24;16.58;;;15.35;;
25932;SDS011;13731;51.166;4.474;2023-03-17T02:32:50;16.17;;;15.38;;
25932;SDS011;13731;51.166;4.474;2023-03-17T02:35:16;15.68;;;14.82;;
25932;SDS011;13731;51.166;4.474;2023-03-17T02:37:43;15.18;;;14.38;;
25932;SDS011;13731;51.166;4.474;2023-03-17T02:40:11;15.07;;;14.38;;
25932;SDS011;13731;51.166;4.474;2023-03-17T02:42:39;15.17;;;14.37;;
25932;SDS011;13731;51.166;4.474;2023-03-17T02:45:06;14.30;;;13.35;;
25932;SDS011;13731;51.166;4.474;2023-03-17T02:47:36;13.98;;;13.18;;
25932;SDS011;13731;51.166;4.474;2023-03-17T02:50:02;14.23;;;13.50;;
25932;SDS011;13731;51.166;4.474;2023-03-17T02:52:30;12.05;;;11.45;;
25932;SDS011;13731;51.166;4.474;2023-03-17T02:54:56;14.05;;;13.18;;
25932;SDS011;13731;51.166;4.474;2023-03-17T02:57:22;13.02;;;12.32;;
25932;SDS011;13731;51.166;4.474;2023-03-17T02:59:48;12.35;;;11.68;;
25932;SDS011;13731;51.166;4.474;2023-03-17T03:02:15;12.70;;;12.00;;
25932;SDS011;13731;51.166;4.474;2023-03-17T03:04:41;12.68;;;12.07;;
25932;SDS011;13731;51.166;4.474;2023-03-17T03:07:07;13.02;;;12.32;;
25932;SDS011;13731;51.166;4.474;2023-03-17T03:09:34;12.85;;;12.25;;
25932;SDS011;13731;51.166;4.474;2023-03-17T03:12:00;13.13;;;12.43;;
25932;SDS011;13731;51.166;4.474;2023-03-17T03:14:26;13.13;;;12.52;;
25932;SDS011;13731;51.166;4.474;2023-03-17T03:16:52;12.88;;;12.32;;
25932;SDS011;13731;51.166;4.474;2023-03-17T03:19:18;12.55;;;11.95;;
25932;SDS011;13731;51.166;4.474;2023-03-17T03:21:44;14.05;;;13.07;;
25932;SDS011;13731;51.166;4.474;2023-03-17T03:24:11;12.82;;;12.20;;
25932;SDS011;13731;51.166;4.474;2023-03-17T03:26:37;12.82;;;12.13;;
25932;SDS011;13731;51.166;4.474;2023-03-17T03:29:03;13.50;;;12.68;;
25932;SDS011;13731;51.166;4.474;2023-03-17T03:31:29;12.60;;;12.00;;
25932;SDS011;13731;51.166;4.474;2023-03-17T03:33:55;12.52;;;12.00;;
25932;SDS011;13731;51.166;4.474;2023-03-17T03:36:21;12.65;;;12.13;;
25932;SDS011;13731;51.166;4.474;2023-03-17T03:38:47;13.88;;;13.13;;
25932;SDS011;13731;51.166;4.474;2023-03-17T03:41:13;12.73;;;12.13;;
25932;SDS011;13731;51.166;4.474;2023-03-17T03:43:39;13.20;;;12.60;;
25932;SDS011;13731;51.166;4.474;2023-03-17T03:46:05;12.48;;;11.88;;
25932;SDS011;13731;51.166;4.474;2023-03-17T03:48:31;12.68;;;11.88;;
25932;SDS011;13731;51.166;4.474;2023-03-17T03:50:58;12.82;;;12.02;;
25932;SDS011;13731;51.166;4.474;2023-03-17T03:53:25;12.32;;;11.55;;
25932;SDS011;13731;51.166;4.474;2023-03-17T03:55:53;12.50;;;12.00;;
25932;SDS011;13731;51.166;4.474;2023-03-17T03:58:19;12.10;;;11.40;;
25932;SDS011;13731;51.166;4.474;2023-03-17T04:00:45;12.52;;;12.00;;
25932;SDS011;13731;51.166;4.474;2023-03-17T04:03:12;12.25;;;11.57;;
25932;SDS011;13731;51.166;4.474;2023-03-17T04:05:38;12.23;;;11.55;;
25932;SDS011;13731;51.166;4.474;2023-03-17T04:08:04;12.73;;;11.90;;
25932;SDS011;13731;51.166;4.474;2023-03-17T04:10:31;12.77;;;12.00;;
25932;SDS011;13731;51.166;4.474;2023-03-17T04:12:57;13.57;;;12.88;;
25932;SDS011;13731;51.166;4.474;2023-03-17T04:15:23;13.32;;;12.63;;
25932;SDS011;13731;51.166;4.474;2023-03-17T04:17:49;12.45;;;11.65;;
25932;SDS011;13731;51.166;4.474;2023-03-17T04:20:16;13.13;;;12.52;;
25932;SDS011;13731;51.166;4.474;2023-03-17T04:22:42;13.13;;;12.52;;
25932;SDS011;13731;51.166;4.474;2023-03-17T04:25:09;13.40;;;12.52;;
25932;SDS011;13731;51.166;4.474;2023-03-17T04:27:37;12.48;;;11.90;;
25932;SDS011;13731;51.166;4.474;2023-03-17T04:30:03;12.48;;;11.88;;
25932;SDS011;13731;51.166;4.474;2023-03-17T04:32:30;13.35;;;12.55;;
25932;SDS011;13731;51.166;4.474;2023-03-17T04:34:56;13.48;;;12.77;;
25932;SDS011;13731;51.166;4.474;2023-03-17T04:37:22;13.25;;;12.65;;
25932;SDS011;13731;51.166;4.474;2023-03-17T04:39:49;13.20;;;12.50;;
25932;SDS011;13731;51.166;4.474;2023-03-17T04:42:15;12.65;;;12.00;;
25932;SDS011;13731;51.166;4.474;2023-03-17T04:44:41;15.40;;;14.45;;
25932;SDS011;13731;51.166;4.474;2023-03-17T04:47:07;13.38;;;12.68;;
25932;SDS011;13731;51.166;4.474;2023-03-17T04:49:33;13.18;;;12.40;;
25932;SDS011;13731;51.166;4.474;2023-03-17T04:51:59;13.27;;;12.57;;
25932;SDS011;13731;51.166;4.474;2023-03-17T04:54:25;14.07;;;13.48;;
25932;SDS011;13731;51.166;4.474;2023-03-17T04:56:51;13.50;;;12.57;;
25932;SDS011;13731;51.166;4.474;2023-03-17T04:59:17;14.48;;;13.57;;
25932;SDS011;13731;51.166;4.474;2023-03-17T05:01:43;12.73;;;12.02;;
25932;SDS011;13731;51.166;4.474;2023-03-17T05:04:09;13.73;;;13.05;;
25932;SDS011;13731;51.166;4.474;2023-03-17T05:06:36;14.07;;;13.35;;
25932;SDS011;13731;51.166;4.474;2023-03-17T05:09:02;13.63;;;12.95;;
25932;SDS011;13731;51.166;4.474;2023-03-17T05:11:28;14.57;;;13.32;;
25932;SDS011;13731;51.166;4.474;2023-03-17T05:13:55;13.50;;;12.70;;
25932;SDS011;13731;51.166;4.474;2023-03-17T05:16:21;14.10;;;13.40;;
25932;SDS011;13731;51.166;4.474;2023-03-17T05:18:47;14.00;;;13.15;;
25932;SDS011;13731;51.166;4.474;2023-03-17T05:21:13;14.13;;;13.32;;
25932;SDS011;13731;51.166;4.474;2023-03-17T05:23:39;13.68;;;13.05;;
25932;SDS011;13731;51.166;4.474;2023-03-17T05:26:06;14.50;;;13.70;;
25932;SDS011;13731;51.166;4.474;2023-03-17T05:28:32;15.07;;;14.27;;
25932;SDS011;13731;51.166;4.474;2023-03-17T05:30:58;15.75;;;14.85;;
25932;SDS011;13731;51.166;4.474;2023-03-17T05:33:24;15.48;;;14.77;;
25932;SDS011;13731;51.166;4.474;2023-03-17T05:35:50;15.70;;;14.90;;
25932;SDS011;13731;51.166;4.474;2023-03-17T05:38:16;14.93;;;14.15;;
25932;SDS011;13731;51.166;4.474;2023-03-17T05:40:42;17.27;;;16.25;;
25932;SDS011;13731;51.166;4.474;2023-03-17T05:43:08;15.55;;;14.85;;
25932;SDS011;13731;51.166;4.474;2023-03-17T05:45:34;15.85;;;15.05;;
25932;SDS011;13731;51.166;4.474;2023-03-17T05:48:00;17.05;;;16.17;;
25932;SDS011;13731;51.166;4.474;2023-03-17T05:50:27;16.63;;;15.65;;
25932;SDS011;13731;51.166;4.474;2023-03-17T05:52:53;16.95;;;15.95;;
25932;SDS011;13731;51.166;4.474;2023-03-17T05:55:19;16.75;;;15.68;;
25932;SDS011;13731;51.166;4.474;2023-03-17T05:57:45;17.33;;;16.42;;
25932;SDS011;13731;51.166;4.474;2023-03-17T06:00:11;17.23;;;16.13;;
25932;SDS011;13731;51.166;4.474;2023-03-17T06:02:37;20.85;;;19.63;;
25932;SDS011;13731;51.166;4.474;2023-03-17T06:05:04;20.27;;;19.02;;
25932;SDS011;13731;51.166;4.474;2023-03-17T06:07:30;20.67;;;19.35;;
25932;SDS011;13731;51.166;4.474;2023-03-17T06:09:56;20.95;;;19.85;;
25932;SDS011;13731;51.166;4.474;2023-03-17T06:12:22;20.90;;;19.77;;
25932;SDS011;13731;51.166;4.474;2023-03-17T06:14:49;20.38;;;19.00;;
25932;SDS011;13731;51.166;4.474;2023-03-17T06:17:15;22.88;;;21.33;;
25932;SDS011;13731;51.166;4.474;2023-03-17T06:19:41;22.13;;;21.05;;
25932;SDS011;13731;51.166;4.474;2023-03-17T06:22:07;21.92;;;20.83;;
25932;SDS011;13731;51.166;4.474;2023-03-17T06:24:33;26.27;;;24.77;;
25932;SDS011;13731;51.166;4.474;2023-03-17T06:26:59;28.00;;;26.48;;
25932;SDS011;13731;51.166;4.474;2023-03-17T06:29:25;25.23;;;23.80;;
25932;SDS011;13731;51.166;4.474;2023-03-17T06:31:52;25.33;;;23.77;;
25932;SDS011;13731;51.166;4.474;2023-03-17T06:34:18;25.45;;;24.15;;
25932;SDS011;13731;51.166;4.474;2023-03-17T06:36:45;22.13;;;20.90;;
25932;SDS011;13731;51.166;4.474;2023-03-17T06:39:12;21.33;;;20.23;;
25932;SDS011;13731;51.166;4.474;2023-03-17T06:41:39;23.67;;;22.10;;
25932;SDS011;13731;51.166;4.474;2023-03-17T06:44:06;23.20;;;21.77;;
25932;SDS011;13731;51.166;4.474;2023-03-17T06:46:33;26.55;;;25.25;;
25932;SDS011;13731;51.166;4.474;2023-03-17T06:49:00;25.45;;;23.98;;
25932;SDS011;13731;51.166;4.474;2023-03-17T06:51:27;22.60;;;21.05;;
25932;SDS011;13731;51.166;4.474;2023-03-17T06:53:54;22.15;;;20.85;;
25932;SDS011;13731;51.166;4.474;2023-03-17T06:56:20;22.60;;;21.25;;
25932;SDS011;13731;51.166;4.474;2023-03-17T06:58:46;23.48;;;21.63;;
25932;SDS011;13731;51.166;4.474;2023-03-17T07:01:12;19.83;;;18.52;;
25932;SDS011;13731;51.166;4.474;2023-03-17T07:03:39;20.73;;;19.23;;
25932;SDS011;13731;51.166;4.474;2023-03-17T07:06:06;18.77;;;17.35;;
25932;SDS011;13731;51.166;4.474;2023-03-17T07:08:33;19.67;;;18.52;;
25932;SDS011;13731;51.166;4.474;2023-03-17T07:10:59;15.93;;;14.70;;
25932;SDS011;13731;51.166;4.474;2023-03-17T07:13:25;22.38;;;20.98;;
25932;SDS011;13731;51.166;4.474;2023-03-17T07:15:52;16.92;;;15.68;;
25932;SDS011;13731;51.166;4.474;2023-03-17T07:18:18;20.10;;;18.77;;
25932;SDS011;13731;51.166;4.474;2023-03-17T07:20:44;18.15;;;17.05;;
25932;SDS011;13731;51.166;4.474;2023-03-17T07:23:13;16.52;;;15.68;;
25932;SDS011;13731;51.166;4.474;2023-03-17T07:25:43;19.60;;;17.10;;
25932;SDS011;13731;51.166;4.474;2023-03-17T07:28:11;21.38;;;19.98;;
25932;SDS011;13731;51.166;4.474;2023-03-17T07:30:37;19.38;;;18.05;;
25932;SDS011;13731;51.166;4.474;2023-03-17T07:33:05;23.35;;;22.15;;
25932;SDS011;13731;51.166;4.474;2023-03-17T07:35:31;24.65;;;22.95;;
25932;SDS011;13731;51.166;4.474;2023-03-17T07:37:57;17.98;;;16.70;;
25932;SDS011;13731;51.166;4.474;2023-03-17T07:40:24;22.38;;;20.90;;
25932;SDS011;13731;51.166;4.474;2023-03-17T07:42:51;18.13;;;17.02;;
25932;SDS011;13731;51.166;4.474;2023-03-17T07:45:16;16.05;;;15.05;;
25932;SDS011;13731;51.166;4.474;2023-03-17T07:47:42;17.67;;;16.05;;
25932;SDS011;13731;51.166;4.474;2023-03-17T07:50:10;19.13;;;18.00;;
25932;SDS011;13731;51.166;4.474;2023-03-17T07:52:36;17.63;;;16.42;;
25932;SDS011;13731;51.166;4.474;2023-03-17T07:55:03;19.75;;;18.42;;
25932;SDS011;13731;51.166;4.474;2023-03-17T07:57:32;19.70;;;18.05;;
25932;SDS011;13731;51.166;4.474;2023-03-17T07:59:58;17.17;;;16.10;;
25932;SDS011;13731;51.166;4.474;2023-03-17T08:02:24;21.23;;;14.68;;
25932;SDS011;13731;51.166;4.474;2023-03-17T08:04:50;15.50;;;14.20;;
25932;SDS011;13731;51.166;4.474;2023-03-17T08:07:16;16.70;;;15.35;;
25932;SDS011;13731;51.166;4.474;2023-03-17T08:09:42;20.58;;;19.08;;
25932;SDS011;13731;51.166;4.474;2023-03-17T08:12:08;15.25;;;14.18;;
25932;SDS011;13731;51.166;4.474;2023-03-17T08:14:34;14.88;;;13.88;;
25932;SDS011;13731;51.166;4.474;2023-03-17T08:17:00;13.75;;;12.80;;
25932;SDS011;13731;51.166;4.474;2023-03-17T08:19:26;15.85;;;14.85;;
25932;SDS011;13731;51.166;4.474;2023-03-17T08:21:52;15.32;;;14.05;;
25932;SDS011;13731;51.166;4.474;2023-03-17T08:24:18;18.65;;;14.93;;
25932;SDS011;13731;51.166;4.474;2023-03-17T08:26:47;15.80;;;13.52;;
25932;SDS011;13731;51.166;4.474;2023-03-17T08:29:13;19.42;;;15.50;;
25932;SDS011;13731;51.166;4.474;2023-03-17T08:31:40;15.45;;;14.45;;
25932;SDS011;13731;51.166;4.474;2023-03-17T08:34:06;16.75;;;15.38;;
25932;SDS011;13731;51.166;4.474;2023-03-17T08:36:32;19.20;;;17.83;;
25932;SDS011;13731;51.166;4.474;2023-03-17T08:38:58;19.50;;;18.20;;
25932;SDS011;13731;51.166;4.474;2023-03-17T08:41:25;23.38;;;21.90;;
25932;SDS011;13731;51.166;4.474;2023-03-17T08:43:52;20.00;;;18.35;;
25932;SDS011;13731;51.166;4.474;2023-03-17T08:46:20;23.08;;;21.60;;
25932;SDS011;13731;51.166;4.474;2023-03-17T08:48:57;19.92;;;18.73;;
25932;SDS011;13731;51.166;4.474;2023-03-17T08:51:25;18.65;;;17.10;;
25932;SDS011;13731;51.166;4.474;2023-03-17T08:53:53;15.80;;;14.70;;
25932;SDS011;13731;51.166;4.474;2023-03-17T08:56:20;12.38;;;11.57;;
25932;SDS011;13731;51.166;4.474;2023-03-17T08:58:46;13.15;;;11.85;;
25932;SDS011;13731;51.166;4.474;2023-03-17T09:01:13;12.48;;;11.52;;
25932;SDS011;13731;51.166;4.474;2023-03-17T09:03:40;12.40;;;11.30;;
25932;SDS011;13731;51.166;4.474;2023-03-17T09:06:06;12.55;;;11.73;;
25932;SDS011;13731;51.166;4.474;2023-03-17T09:08:35;20.48;;;19.05;;
25932;SDS011;13731;51.166;4.474;2023-03-17T09:11:07;13.43;;;12.40;;
25932;SDS011;13731;51.166;4.474;2023-03-17T09:13:34;24.45;;;23.05;;
25932;SDS011;13731;51.166;4.474;2023-03-17T09:16:04;17.63;;;16.37;;
25932;SDS011;13731;51.166;4.474;2023-03-17T09:18:34;16.75;;;15.48;;
25932;SDS011;13731;51.166;4.474;2023-03-17T09:21:00;21.60;;;19.50;;
25932;SDS011;13731;51.166;4.474;2023-03-17T09:23:27;17.48;;;16.48;;
25932;SDS011;13731;51.166;4.474;2023-03-17T09:25:53;19.67;;;18.02;;
25932;SDS011;13731;51.166;4.474;2023-03-17T09:28:20;18.08;;;16.73;;
25932;SDS011;13731;51.166;4.474;2023-03-17T09:30:45;19.50;;;18.05;;
25932;SDS011;13731;51.166;4.474;2023-03-17T09:33:12;22.95;;;21.33;;
25932;SDS011;13731;51.166;4.474;2023-03-17T09:35:39;18.92;;;17.70;;
25932;SDS011;13731;51.166;4.474;2023-03-17T09:38:05;23.70;;;22.30;;
25932;SDS011;13731;51.166;4.474;2023-03-17T09:40:43;20.30;;;18.88;;
25932;SDS011;13731;51.166;4.474;2023-03-17T09:45:50;19.00;;;17.80;;
25932;SDS011;13731;51.166;4.474;2023-03-17T09:48:23;20.35;;;18.60;;
25932;SDS011;13731;51.166;4.474;2023-03-17T09:51:12;22.58;;;20.70;;
25932;SDS011;13731;51.166;4.474;2023-03-17T09:56:18;21.80;;;20.20;;
25932;SDS011;13731;51.166;4.474;2023-03-17T10:01:31;22.52;;;20.63;;
25932;SDS011;13731;51.166;4.474;2023-03-17T10:03:57;23.33;;;21.40;;
25932;SDS011;13731;51.166;4.474;2023-03-17T10:06:33;23.60;;;21.83;;
25932;SDS011;13731;51.166;4.474;2023-03-17T10:12:07;27.50;;;25.88;;
25932;SDS011;13731;51.166;4.474;2023-03-17T10:14:45;26.92;;;24.38;;
25932;SDS011;13731;51.166;4.474;2023-03-17T10:17:16;30.15;;;28.27;;
25932;SDS011;13731;51.166;4.474;2023-03-17T10:19:44;27.30;;;25.73;;
25932;SDS011;13731;51.166;4.474;2023-03-17T10:22:13;23.23;;;20.90;;
25932;SDS011;13731;51.166;4.474;2023-03-17T10:24:47;17.88;;;16.50;;
25932;SDS011;13731;51.166;4.474;2023-03-17T10:27:16;19.05;;;17.52;;
25932;SDS011;13731;51.166;4.474;2023-03-17T10:29:43;18.27;;;16.23;;
25932;SDS011;13731;51.166;4.474;2023-03-17T10:32:10;17.60;;;16.20;;
25932;SDS011;13731;51.166;4.474;2023-03-17T10:34:37;14.48;;;13.38;;
25932;SDS011;13731;51.166;4.474;2023-03-17T10:37:18;14.52;;;13.45;;
25932;SDS011;13731;51.166;4.474;2023-03-17T10:39:47;14.63;;;13.18;;
25932;SDS011;13731;51.166;4.474;2023-03-17T10:44:54;15.30;;;14.20;;
25932;SDS011;13731;51.166;4.474;2023-03-17T10:47:29;15.75;;;14.05;;
25932;SDS011;13731;51.166;4.474;2023-03-17T10:49:58;15.98;;;14.38;;
25932;SDS011;13731;51.166;4.474;2023-03-17T10:52:45;13.15;;;12.10;;
25932;SDS011;13731;51.166;4.474;2023-03-17T10:55:14;12.95;;;11.63;;
25932;SDS011;13731;51.166;4.474;2023-03-17T10:57:49;13.30;;;10.77;;
25932;SDS011;13731;51.166;4.474;2023-03-17T11:00:18;12.05;;;10.85;;
25932;SDS011;13731;51.166;4.474;2023-03-17T11:02:47;12.25;;;11.00;;
25932;SDS011;13731;51.166;4.474;2023-03-17T11:05:28;11.77;;;10.73;;
25932;SDS011;13731;51.166;4.474;2023-03-17T11:08:05;12.45;;;11.48;;
25932;SDS011;13731;51.166;4.474;2023-03-17T11:10:36;13.95;;;12.75;;
25932;SDS011;13731;51.166;4.474;2023-03-17T11:13:03;15.67;;;13.87;;
25932;SDS011;13731;51.166;4.474;2023-03-17T11:15:33;14.00;;;13.05;;
25932;SDS011;13731;51.166;4.474;2023-03-17T11:18:05;13.75;;;12.38;;
25932;SDS011;13731;51.166;4.474;2023-03-17T11:40:11;16.75;;;15.77;;
25932;SDS011;13731;51.166;4.474;2023-03-17T11:46:36;15.15;;;14.18;;
25932;SDS011;13731;51.166;4.474;2023-03-17T11:48:43;13.82;;;12.52;;
25932;SDS011;13731;51.166;4.474;2023-03-17T11:54:56;12.00;;;11.05;;
25932;SDS011;13731;51.166;4.474;2023-03-17T12:05:07;12.93;;;11.93;;
25932;SDS011;13731;51.166;4.474;2023-03-17T12:10:25;12.38;;;11.30;;
25932;SDS011;13731;51.166;4.474;2023-03-17T12:15:53;16.92;;;15.40;;
25932;SDS011;13731;51.166;4.474;2023-03-17T12:24:07;12.00;;;10.75;;
25932;SDS011;13731;51.166;4.474;2023-03-17T12:32:04;12.70;;;11.45;;
25932;SDS011;13731;51.166;4.474;2023-03-17T12:34:37;13.60;;;10.50;;
25932;SDS011;13731;51.166;4.474;2023-03-17T12:37:07;11.85;;;10.82;;
25932;SDS011;13731;51.166;4.474;2023-03-17T12:39:34;14.10;;;10.95;;
25932;SDS011;13731;51.166;4.474;2023-03-17T12:44:47;11.13;;;10.10;;
25932;SDS011;13731;51.166;4.474;2023-03-17T12:47:38;12.95;;;11.95;;
25932;SDS011;13731;51.166;4.474;2023-03-17T12:50:26;13.50;;;12.27;;
25932;SDS011;13731;51.166;4.474;2023-03-17T12:55:38;11.43;;;10.43;;
25932;SDS011;13731;51.166;4.474;2023-03-17T12:58:26;12.00;;;10.88;;
25932;SDS011;13731;51.166;4.474;2023-03-17T13:01:35;11.73;;;10.80;;
25932;SDS011;13731;51.166;4.474;2023-03-17T13:04:21;12.15;;;10.68;;
25932;SDS011;13731;51.166;4.474;2023-03-17T13:10:12;10.27;;;9.68;;
25932;SDS011;13731;51.166;4.474;2023-03-17T13:15:50;12.60;;;11.60;;
25932;SDS011;13731;51.166;4.474;2023-03-17T13:46:52;124.15;;;118.40;;
25932;SDS011;13731;51.166;4.474;2023-03-17T13:49:20;108.43;;;103.25;;
25932;SDS011;13731;51.166;4.474;2023-03-17T13:54:41;108.13;;;102.68;;
25932;SDS011;13731;51.166;4.474;2023-03-17T13:59:53;54.00;;;51.30;;
25932;SDS011;13731;51.166;4.474;2023-03-17T14:02:20;43.10;;;40.75;;
25932;SDS011;13731;51.166;4.474;2023-03-17T14:04:50;36.33;;;33.95;;
25932;SDS011;13731;51.166;4.474;2023-03-17T14:07:21;26.90;;;25.30;;
25932;SDS011;13731;51.166;4.474;2023-03-17T14:09:50;27.35;;;25.67;;
25932;SDS011;13731;51.166;4.474;2023-03-17T14:12:27;30.13;;;28.42;;
25932;SDS011;13731;51.166;4.474;2023-03-17T14:15:23;15.20;;;14.10;;
25932;SDS011;13731;51.166;4.474;2023-03-17T14:18:15;15.80;;;14.43;;
25932;SDS011;13731;51.166;4.474;2023-03-17T14:21:03;14.68;;;13.55;;
25932;SDS011;13731;51.166;4.474;2023-03-17T14:25:56;12.02;;;11.13;;
25932;SDS011;13731;51.166;4.474;2023-03-17T14:28:30;14.13;;;13.15;;
25932;SDS011;13731;51.166;4.474;2023-03-17T14:31:05;18.73;;;17.38;;
25932;SDS011;13731;51.166;4.474;2023-03-17T14:33:35;20.02;;;18.75;;
25932;SDS011;13731;51.166;4.474;2023-03-17T14:36:05;26.63;;;24.88;;
25932;SDS011;13731;51.166;4.474;2023-03-17T14:38:34;42.78;;;39.92;;
25932;SDS011;13731;51.166;4.474;2023-03-17T14:43:32;40.35;;;38.17;;
25932;SDS011;13731;51.166;4.474;2023-03-17T14:48:32;16.40;;;15.07;;
25932;SDS011;13731;51.166;4.474;2023-03-17T14:51:47;11.70;;;10.73;;
25932;SDS011;13731;51.166;4.474;2023-03-17T14:54:02;10.60;;;9.55;;
25932;SDS011;13731;51.166;4.474;2023-03-17T14:56:36;9.75;;;9.10;;
25932;SDS011;13731;51.166;4.474;2023-03-17T14:59:06;8.77;;;7.95;;
25932;SDS011;13731;51.166;4.474;2023-03-17T15:01:42;10.70;;;9.02;;
25932;SDS011;13731;51.166;4.474;2023-03-17T15:04:12;9.48;;;8.70;;
25932;SDS011;13731;51.166;4.474;2023-03-17T15:06:49;9.05;;;8.45;;
25932;SDS011;13731;51.166;4.474;2023-03-17T15:09:24;8.77;;;8.07;;
25932;SDS011;13731;51.166;4.474;2023-03-17T15:12:16;9.98;;;9.15;;
25932;SDS011;13731;51.166;4.474;2023-03-17T15:14:49;9.77;;;8.88;;
25932;SDS011;13731;51.166;4.474;2023-03-17T15:17:36;8.82;;;8.32;;
25932;SDS011;13731;51.166;4.474;2023-03-17T15:20:03;11.98;;;8.75;;
25932;SDS011;13731;51.166;4.474;2023-03-17T15:22:39;9.38;;;8.60;;
25932;SDS011;13731;51.166;4.474;2023-03-17T15:25:15;9.73;;;8.93;;
25932;SDS011;13731;51.166;4.474;2023-03-17T15:28:14;9.27;;;8.45;;
25932;SDS011;13731;51.166;4.474;2023-03-17T15:30:42;13.18;;;9.05;;
25932;SDS011;13731;51.166;4.474;2023-03-17T15:33:30;9.27;;;8.45;;
25932;SDS011;13731;51.166;4.474;2023-03-17T15:36:01;10.05;;;9.05;;
25932;SDS011;13731;51.166;4.474;2023-03-17T15:38:28;9.65;;;8.90;;
25932;SDS011;13731;51.166;4.474;2023-03-17T15:40:54;9.85;;;9.15;;
25932;SDS011;13731;51.166;4.474;2023-03-17T15:43:20;11.95;;;10.88;;
25932;SDS011;13731;51.166;4.474;2023-03-17T15:45:51;11.30;;;10.38;;
25932;SDS011;13731;51.166;4.474;2023-03-17T15:48:24;11.77;;;10.98;;
25932;SDS011;13731;51.166;4.474;2023-03-17T15:50:52;11.85;;;10.70;;
25932;SDS011;13731;51.166;4.474;2023-03-17T15:53:19;11.57;;;10.60;;
25932;SDS011;13731;51.166;4.474;2023-03-17T15:55:46;10.85;;;9.98;;
25932;SDS011;13731;51.166;4.474;2023-03-17T15:58:12;11.80;;;10.57;;
25932;SDS011;13731;51.166;4.474;2023-03-17T16:00:38;11.50;;;10.80;;
25932;SDS011;13731;51.166;4.474;2023-03-17T16:03:10;12.27;;;11.07;;
25932;SDS011;13731;51.166;4.474;2023-03-17T16:05:45;11.55;;;10.75;;
25932;SDS011;13731;51.166;4.474;2023-03-17T16:08:12;12.30;;;11.20;;
25932;SDS011;13731;51.166;4.474;2023-03-17T16:10:39;11.68;;;10.85;;
25932;SDS011;13731;51.166;4.474;2023-03-17T16:13:05;12.13;;;11.18;;
25932;SDS011;13731;51.166;4.474;2023-03-17T16:15:31;11.82;;;10.90;;
25932;SDS011;13731;51.166;4.474;2023-03-17T16:18:15;11.73;;;10.73;;
25932;SDS011;13731;51.166;4.474;2023-03-17T16:20:43;12.27;;;11.27;;
25932;SDS011;13731;51.166;4.474;2023-03-17T16:23:25;11.80;;;10.60;;
25932;SDS011;13731;51.166;4.474;2023-03-17T16:25:54;10.38;;;9.52;;
25932;SDS011;13731;51.166;4.474;2023-03-17T16:28:25;11.25;;;10.27;;
25932;SDS011;13731;51.166;4.474;2023-03-17T16:30:53;12.88;;;11.65;;
25932;SDS011;13731;51.166;4.474;2023-03-17T16:33:21;12.35;;;11.05;;
25932;SDS011;13731;51.166;4.474;2023-03-17T16:35:49;11.85;;;10.82;;
25932;SDS011;13731;51.166;4.474;2023-03-17T16:38:21;12.02;;;10.93;;